ダカール の空港の天気 - METARとTAF

レオポール・セダール・サンゴール国際空港 ( GOOY / DKR ) - セネガル ダカール
飛行場実況気象(Metar)
観測時間05/28 10:00 GMT (05/28 10:00 UTC)
風向・風速静穏 0m/s
視程10km以上
天気現象
なし
気温25℃
湿度89%
気圧1015hPa
METARGOOY 281000Z 00000KT CAVOK 25/23 Q1015
過去の天気等 Google飛行場航空写真 Wunderground天気予報

過去48時間のMETAR

飛行場予報(TAF)
発表時間: 5/28 05:00 GMT (5/28 05:00 UTC)
予報対象時間: 28日6時 GMT ~ 29日12時 GMT
風向・風速北北西 4m/s
視程10km以上
なし
TAF GOOY 280500Z 2806/2912 34008KT CAVOK